createdAt,value
2023-03-30T00:03:55.959Z,10.30
2023-03-30T00:08:59.654Z,10.44
2023-03-30T00:14:01.728Z,10.55
2023-03-30T00:19:03.425Z,10.46
2023-03-30T00:24:05.136Z,9.92
2023-03-30T00:29:06.764Z,10.02
2023-03-30T00:34:09.622Z,10.32
2023-03-30T00:39:11.267Z,10.57
2023-03-30T00:44:50.973Z,10.91
2023-03-30T00:49:53.344Z,10.75
2023-03-30T00:54:57.405Z,10.09
2023-03-30T00:59:59.155Z,9.97
2023-03-30T01:05:04.018Z,9.98
2023-03-30T01:10:08.352Z,10.03
2023-03-30T01:15:10.970Z,9.89
2023-03-30T01:20:25.643Z,9.83
2023-03-30T01:25:46.070Z,9.71
2023-03-30T01:30:50.710Z,9.36
2023-03-30T01:36:13.895Z,9.05
2023-03-30T01:41:31.260Z,8.63
2023-03-30T01:46:40.349Z,8.65
2023-03-30T01:52:05.622Z,8.53
2023-03-30T01:57:22.270Z,8.35
2023-03-30T02:02:29.269Z,8.29
2023-03-30T02:07:33.459Z,8.36
2023-03-30T02:12:36.407Z,8.07
2023-03-30T02:17:38.354Z,8.04
2023-03-30T02:22:40.784Z,7.89
2023-03-30T02:27:42.830Z,7.78
2023-03-30T02:32:48.521Z,7.83
2023-03-30T02:38:02.284Z,7.77
2023-03-30T02:43:37.922Z,7.55
2023-03-30T02:49:26.901Z,7.61
2023-03-30T02:54:55.111Z,7.42
2023-03-30T03:00:39.257Z,7.50
2023-03-30T03:05:44.870Z,7.41
2023-03-30T03:10:49.615Z,7.26
2023-03-30T03:15:56.051Z,7.32
2023-03-30T03:20:59.308Z,7.30
2023-03-30T03:26:01.126Z,6.80
2023-03-30T03:31:06.557Z,7.14
2023-03-30T03:36:12.257Z,7.13
2023-03-30T03:41:20.626Z,7.08
2023-03-30T03:46:22.486Z,7.12
2023-03-30T03:51:24.197Z,7.12
2023-03-30T03:56:26.840Z,7.25
2023-03-30T04:01:31.624Z,6.92
2023-03-30T04:06:33.270Z,6.84
2023-03-30T04:11:35.013Z,6.86
2023-03-30T04:16:58.063Z,6.75
2023-03-30T04:22:41.728Z,6.42
2023-03-30T04:28:15.850Z,6.42
2023-03-30T04:33:35.074Z,6.34
2023-03-30T04:38:58.802Z,6.33
2023-03-30T04:44:22.125Z,6.24
2023-03-30T04:49:42.242Z,6.38
2023-03-30T04:55:12.887Z,6.25
2023-03-30T05:00:42.503Z,6.35
2023-03-30T05:05:57.732Z,6.11
2023-03-30T05:11:18.185Z,6.16
2023-03-30T05:16:25.773Z,6.26
2023-03-30T05:21:42.488Z,6.64
2023-03-30T05:27:02.926Z,6.68
2023-03-30T05:32:14.265Z,6.81
2023-03-30T05:37:28.125Z,6.83
2023-03-30T05:42:36.676Z,6.97
2023-03-30T05:47:45.978Z,7.01
2023-03-30T05:52:59.698Z,7.02
2023-03-30T05:58:18.801Z,7.45
2023-03-30T06:03:39.111Z,7.85
2023-03-30T06:08:42.378Z,8.29
2023-03-30T06:13:50.521Z,8.14
2023-03-30T06:18:52.216Z,8.16
2023-03-30T06:23:53.859Z,8.43
2023-03-30T06:28:58.449Z,9.03
2023-03-30T06:34:01.096Z,10.44
2023-03-30T06:39:06.486Z,12.85
2023-03-30T06:44:14.805Z,13.42
2023-03-30T06:49:16.896Z,13.60
2023-03-30T06:54:20.416Z,13.81
2023-03-30T06:59:29.486Z,14.13
2023-03-30T07:05:01.188Z,14.14
2023-03-30T07:10:22.327Z,14.25
2023-03-30T07:15:24.889Z,14.65
2023-03-30T07:20:27.509Z,15.10
2023-03-30T07:25:42.055Z,15.75
2023-03-30T07:31:24.632Z,16.46
2023-03-30T07:36:27.011Z,15.39
2023-03-30T07:41:29.531Z,15.74
2023-03-30T07:46:34.272Z,15.02
2023-03-30T07:51:36.564Z,16.17
2023-03-30T07:56:52.787Z,16.09
2023-03-30T08:01:56.228Z,15.58
2023-03-30T08:07:20.165Z,15.45
2023-03-30T08:12:28.179Z,15.79
2023-03-30T08:17:30.043Z,16.54
2023-03-30T08:22:31.872Z,16.91
2023-03-30T08:27:34.214Z,16.83
2023-03-30T08:32:35.844Z,16.82
2023-03-30T08:37:37.440Z,16.89
2023-03-30T08:42:57.207Z,16.92
2023-03-30T08:47:59.921Z,16.57
2023-03-30T08:53:04.697Z,16.55
2023-03-30T08:58:27.207Z,16.52
2023-03-30T09:03:50.670Z,16.48
2023-03-30T09:08:52.694Z,16.46
2023-03-30T09:13:56.181Z,16.21
2023-03-30T09:18:59.242Z,16.19
2023-03-30T09:24:12.152Z,16.13
2023-03-30T09:29:30.715Z,16.01
2023-03-30T09:34:54.409Z,15.95
2023-03-30T09:39:59.044Z,15.67
2023-03-30T09:45:21.282Z,15.31
2023-03-30T09:50:26.896Z,15.03
2023-03-30T09:55:31.528Z,14.95
2023-03-30T10:00:34.203Z,14.92
2023-03-30T10:05:37.991Z,14.91
2023-03-30T10:10:41.106Z,14.56
2023-03-30T10:15:46.237Z,14.29
2023-03-30T10:21:00.538Z,13.98
2023-03-30T10:26:04.467Z,13.75
2023-03-30T10:31:16.221Z,13.69
2023-03-30T10:36:19.486Z,13.72
2023-03-30T10:41:23.626Z,13.62
2023-03-30T10:46:25.639Z,13.53
2023-03-30T10:51:42.462Z,13.63
2023-03-30T10:56:46.392Z,13.77
2023-03-30T11:02:29.418Z,13.87
2023-03-30T11:07:40.119Z,14.08
2023-03-30T11:12:46.602Z,14.44
2023-03-30T11:17:57.402Z,14.66
2023-03-30T11:23:21.810Z,14.92
2023-03-30T11:28:47.980Z,14.74
2023-03-30T11:34:08.677Z,14.65
2023-03-30T11:39:31.124Z,14.74
2023-03-30T11:44:33.898Z,14.96
2023-03-30T11:49:53.654Z,15.23
2023-03-30T11:55:23.949Z,16.01
2023-03-30T12:00:41.099Z,16.38
2023-03-30T12:05:46.146Z,17.39
2023-03-30T12:10:55.247Z,17.29
2023-03-30T12:16:12.234Z,16.44
2023-03-30T12:21:32.805Z,16.50
2023-03-30T12:26:36.262Z,17.33
2023-03-30T12:31:53.312Z,17.27
2023-03-30T12:37:04.361Z,16.95
2023-03-30T12:42:10.191Z,17.15
2023-03-30T12:47:50.645Z,17.69
2023-03-30T12:53:19.521Z,17.96
2023-03-30T12:58:43.783Z,18.90
2023-03-30T13:03:54.517Z,19.25
2023-03-30T13:09:15.499Z,18.81
2023-03-30T13:14:39.683Z,18.18
2023-03-30T13:19:45.543Z,18.01
2023-03-30T13:24:54.397Z,17.96
2023-03-30T13:29:59.147Z,17.42
2023-03-30T13:35:32.544Z,17.39
2023-03-30T13:41:01.579Z,17.16
2023-03-30T13:46:29.632Z,17.00
2023-03-30T13:51:32.763Z,17.05
2023-03-30T13:56:39.317Z,17.13
2023-03-30T14:01:45.386Z,18.40
2023-03-30T14:06:51.377Z,18.08
2023-03-30T14:11:58.616Z,18.49
2023-03-30T14:17:02.434Z,18.46
2023-03-30T14:22:16.870Z,18.29
2023-03-30T14:27:18.470Z,18.43
2023-03-30T14:32:23.493Z,17.83
2023-03-30T14:37:26.336Z,17.76
2023-03-30T14:42:34.121Z,17.68
2023-03-30T14:47:37.748Z,17.91
2023-03-30T14:52:46.237Z,17.64
2023-03-30T14:57:49.273Z,17.83
2023-03-30T15:02:56.884Z,17.28
2023-03-30T15:07:58.863Z,17.58
2023-03-30T15:13:02.688Z,17.25
2023-03-30T15:18:05.218Z,16.37
2023-03-30T15:23:06.941Z,15.94
2023-03-30T15:28:19.098Z,16.12
2023-03-30T15:33:35.022Z,16.23
2023-03-30T15:38:52.974Z,16.14
2023-03-30T15:43:56.307Z,15.87
2023-03-30T15:48:58.099Z,15.59
2023-03-30T15:54:01.914Z,14.49
2023-03-30T15:59:04.372Z,11.43
2023-03-30T16:04:07.493Z,11.03
2023-03-30T16:09:09.376Z,11.21
2023-03-30T16:14:14.138Z,11.34
2023-03-30T16:19:18.639Z,11.44
2023-03-30T16:24:20.345Z,11.26
2023-03-30T16:29:24.172Z,11.28
2023-03-30T16:34:26.394Z,11.44
2023-03-30T16:39:29.755Z,11.43
2023-03-30T16:44:31.543Z,11.35
2023-03-30T16:49:33.227Z,11.37
2023-03-30T16:54:34.867Z,11.36
2023-03-30T16:59:36.473Z,11.50
2023-03-30T17:04:38.116Z,11.60
2023-03-30T17:09:39.726Z,11.56
2023-03-30T17:14:43.026Z,11.63
2023-03-30T17:19:44.753Z,11.65
2023-03-30T17:24:46.458Z,11.58
2023-03-30T17:29:48.091Z,11.53
2023-03-30T17:34:49.689Z,11.48
2023-03-30T17:39:51.286Z,11.42
2023-03-30T17:44:52.900Z,11.42
2023-03-30T17:49:54.530Z,11.33
2023-03-30T17:54:57.204Z,11.22
2023-03-30T17:59:58.797Z,11.23
2023-03-30T18:05:00.417Z,11.09
2023-03-30T18:10:02.553Z,11.04
2023-03-30T18:15:04.436Z,10.98
2023-03-30T18:20:14.198Z,10.91
2023-03-30T18:25:25.883Z,10.92
2023-03-30T18:30:37.715Z,10.82
2023-03-30T18:35:39.610Z,10.93
2023-03-30T18:40:50.147Z,10.76
2023-03-30T18:45:52.442Z,10.78
2023-03-30T18:50:55.108Z,10.74
2023-03-30T18:56:00.396Z,10.70
2023-03-30T19:01:02.550Z,10.92
2023-03-30T19:06:04.503Z,10.93
2023-03-30T19:11:07.546Z,10.94
2023-03-30T19:16:09.267Z,10.83
2023-03-30T19:21:15.436Z,10.90
2023-03-30T19:26:17.050Z,10.90
2023-03-30T19:31:18.949Z,10.82
2023-03-30T19:36:23.301Z,10.75
2023-03-30T19:41:26.851Z,10.76
2023-03-30T19:46:28.559Z,10.89
2023-03-30T19:51:30.374Z,10.82
2023-03-30T19:56:32.183Z,10.83
2023-03-30T20:01:33.834Z,10.87
2023-03-30T20:06:35.987Z,10.86
2023-03-30T20:11:37.655Z,10.78
2023-03-30T20:16:39.743Z,10.88
2023-03-30T20:21:41.732Z,10.81
2023-03-30T20:26:43.373Z,10.72
2023-03-30T20:31:46.308Z,10.65
2023-03-30T20:36:49.936Z,10.60
2023-03-30T20:41:54.034Z,10.64
2023-03-30T20:46:59.938Z,10.62
2023-03-30T20:52:01.995Z,10.67
2023-03-30T20:57:04.452Z,10.61
2023-03-30T21:02:06.404Z,10.51
2023-03-30T21:07:10.277Z,10.46
2023-03-30T21:12:11.973Z,10.35
2023-03-30T21:17:13.676Z,10.47
2023-03-30T21:22:18.060Z,10.40
2023-03-30T21:27:19.668Z,10.40
2023-03-30T21:32:21.358Z,10.43
2023-03-30T21:37:22.980Z,10.48
2023-03-30T21:42:24.646Z,10.51
2023-03-30T21:47:26.261Z,10.48
2023-03-30T21:52:28.925Z,10.57
2023-03-30T21:57:30.617Z,10.61
2023-03-30T22:02:32.286Z,10.90
2023-03-30T22:07:33.915Z,10.97
2023-03-30T22:12:35.562Z,10.93
2023-03-30T22:17:41.836Z,11.05
2023-03-30T22:22:44.123Z,11.00
2023-03-30T22:27:45.917Z,10.96
2023-03-30T22:32:47.601Z,11.11
2023-03-30T22:37:49.264Z,11.03
2023-03-30T22:42:50.866Z,10.97
2023-03-30T22:47:52.561Z,11.00
2023-03-30T22:52:56.587Z,10.89
2023-03-30T22:57:58.260Z,10.89
2023-03-30T23:03:00.024Z,10.95
2023-03-30T23:08:01.756Z,11.04
2023-03-30T23:13:04.614Z,11.02
2023-03-30T23:18:06.250Z,11.05
2023-03-30T23:23:07.872Z,10.99
2023-03-30T23:28:09.508Z,11.06
2023-03-30T23:33:12.150Z,11.04
2023-03-30T23:38:13.760Z,11.05
2023-03-30T23:43:15.522Z,11.08
2023-03-30T23:48:17.371Z,11.21
2023-03-30T23:53:19.880Z,11.20
2023-03-30T23:58:22.252Z,11.29
